sensor_id;sensor_type;location;lat;lon;timestamp;pressure;altitude;pressure_sealevel;temperature;humidity
63088;BME280;49173;43.164;27.786;2023-09-12T00:00:56;100658.00;;;18.66;65.37
63088;BME280;49173;43.164;27.786;2023-09-12T00:03:23;100654.41;;;18.65;65.26
63088;BME280;49173;43.164;27.786;2023-09-12T00:08:18;100656.03;;;18.68;65.38
63088;BME280;49173;43.164;27.786;2023-09-12T00:10:44;100655.28;;;18.66;65.45
63088;BME280;49173;43.164;27.786;2023-09-12T00:13:10;100660.34;;;18.59;65.66
63088;BME280;49173;43.164;27.786;2023-09-12T00:15:35;100661.19;;;18.60;65.28
63088;BME280;49173;43.164;27.786;2023-09-12T00:18:01;100662.34;;;18.57;65.43
63088;BME280;49173;43.164;27.786;2023-09-12T00:20:28;100658.53;;;18.49;65.61
63088;BME280;49173;43.164;27.786;2023-09-12T00:22:53;100648.03;;;18.44;65.52
63088;BME280;49173;43.164;27.786;2023-09-12T00:25:20;100654.13;;;18.36;65.65
63088;BME280;49173;43.164;27.786;2023-09-12T00:27:46;100644.59;;;18.31;66.14
63088;BME280;49173;43.164;27.786;2023-09-12T00:30:14;100644.50;;;18.32;66.28
63088;BME280;49173;43.164;27.786;2023-09-12T00:32:39;100634.00;;;18.28;66.49
63088;BME280;49173;43.164;27.786;2023-09-12T00:35:05;100633.00;;;18.29;66.54
63088;BME280;49173;43.164;27.786;2023-09-12T00:37:31;100634.59;;;18.31;66.55
63088;BME280;49173;43.164;27.786;2023-09-12T00:39:57;100639.31;;;18.29;67.10
63088;BME280;49173;43.164;27.786;2023-09-12T00:42:26;100643.66;;;18.21;67.01
63088;BME280;49173;43.164;27.786;2023-09-12T00:44:52;100635.38;;;18.22;66.99
63088;BME280;49173;43.164;27.786;2023-09-12T00:47:18;100646.88;;;18.26;66.76
63088;BME280;49173;43.164;27.786;2023-09-12T00:49:46;100644.25;;;18.24;66.85
63088;BME280;49173;43.164;27.786;2023-09-12T00:52:13;100645.66;;;18.19;66.79
63088;BME280;49173;43.164;27.786;2023-09-12T00:54:40;100647.59;;;18.17;66.74
63088;BME280;49173;43.164;27.786;2023-09-12T00:57:06;100649.84;;;18.11;66.66
63088;BME280;49173;43.164;27.786;2023-09-12T00:59:33;100654.06;;;18.04;66.60
63088;BME280;49173;43.164;27.786;2023-09-12T01:01:59;100650.72;;;18.01;67.03
63088;BME280;49173;43.164;27.786;2023-09-12T01:04:27;100647.91;;;17.91;67.08
63088;BME280;49173;43.164;27.786;2023-09-12T01:06:53;100652.97;;;17.84;67.15
63088;BME280;49173;43.164;27.786;2023-09-12T01:09:19;100657.63;;;17.82;67.26
63088;BME280;49173;43.164;27.786;2023-09-12T01:11:44;100656.28;;;17.77;67.46
63088;BME280;49173;43.164;27.786;2023-09-12T01:14:10;100645.66;;;17.74;67.25
63088;BME280;49173;43.164;27.786;2023-09-12T01:16:37;100655.88;;;17.70;67.63
63088;BME280;49173;43.164;27.786;2023-09-12T01:19:04;100662.91;;;17.62;67.58
63088;BME280;49173;43.164;27.786;2023-09-12T01:27:35;100657.81;;;17.46;68.21
63088;BME280;49173;43.164;27.786;2023-09-12T01:30:05;100661.66;;;17.43;68.47
63088;BME280;49173;43.164;27.786;2023-09-12T01:32:31;100653.66;;;17.42;68.71
63088;BME280;49173;43.164;27.786;2023-09-12T01:34:58;100649.81;;;17.44;68.76
63088;BME280;49173;43.164;27.786;2023-09-12T01:37:24;100650.69;;;17.45;69.68
63088;BME280;49173;43.164;27.786;2023-09-12T01:39:50;100654.88;;;17.49;70.05
63088;BME280;49173;43.164;27.786;2023-09-12T01:42:18;100661.19;;;17.49;70.30
63088;BME280;49173;43.164;27.786;2023-09-12T01:44:45;100659.84;;;17.55;70.11
63088;BME280;49173;43.164;27.786;2023-09-12T01:47:12;100660.69;;;17.55;69.99
63088;BME280;49173;43.164;27.786;2023-09-12T01:49:42;100659.06;;;17.53;70.03
63088;BME280;49173;43.164;27.786;2023-09-12T01:52:10;100662.78;;;17.52;70.29
63088;BME280;49173;43.164;27.786;2023-09-12T01:54:36;100662.78;;;17.52;69.72
63088;BME280;49173;43.164;27.786;2023-09-12T01:57:02;100655.88;;;17.48;69.64
63088;BME280;49173;43.164;27.786;2023-09-12T01:59:29;100659.06;;;17.42;69.82
63088;BME280;49173;43.164;27.786;2023-09-12T02:01:55;100659.16;;;17.40;69.63
63088;BME280;49173;43.164;27.786;2023-09-12T02:04:21;100656.34;;;17.42;69.90
63088;BME280;49173;43.164;27.786;2023-09-12T02:06:47;100653.50;;;17.43;70.22
63088;BME280;49173;43.164;27.786;2023-09-12T02:09:12;100657.34;;;17.41;70.17
63088;BME280;49173;43.164;27.786;2023-09-12T02:11:38;100644.66;;;17.41;70.02
63088;BME280;49173;43.164;27.786;2023-09-12T02:14:04;100647.44;;;17.40;70.08
63088;BME280;49173;43.164;27.786;2023-09-12T02:16:31;100645.00;;;17.37;70.23
63088;BME280;49173;43.164;27.786;2023-09-12T02:18:57;100648.56;;;17.37;70.25
63088;BME280;49173;43.164;27.786;2023-09-12T02:21:22;100645.47;;;17.30;70.74
63088;BME280;49173;43.164;27.786;2023-09-12T02:23:48;100648.78;;;17.23;71.19
63088;BME280;49173;43.164;27.786;2023-09-12T02:26:14;100647.44;;;17.28;70.91
63088;BME280;49173;43.164;27.786;2023-09-12T02:28:40;100642.25;;;17.25;70.90
63088;BME280;49173;43.164;27.786;2023-09-12T02:31:10;100652.09;;;17.26;70.36
63088;BME280;49173;43.164;27.786;2023-09-12T02:33:38;100649.53;;;17.25;70.56
63088;BME280;49173;43.164;27.786;2023-09-12T02:36:04;100647.81;;;17.24;70.72
63088;BME280;49173;43.164;27.786;2023-09-12T02:38:30;100647.56;;;17.27;70.94
63088;BME280;49173;43.164;27.786;2023-09-12T02:40:56;100653.00;;;17.27;71.19
63088;BME280;49173;43.164;27.786;2023-09-12T02:43:22;100657.78;;;17.23;71.50
63088;BME280;49173;43.164;27.786;2023-09-12T02:45:47;100660.75;;;17.20;71.85
63088;BME280;49173;43.164;27.786;2023-09-12T02:48:13;100657.78;;;17.23;71.71
63088;BME280;49173;43.164;27.786;2023-09-12T02:50:39;100655.81;;;17.25;72.02
63088;BME280;49173;43.164;27.786;2023-09-12T02:53:05;100661.25;;;17.25;71.89
63088;BME280;49173;43.164;27.786;2023-09-12T02:55:32;100659.00;;;17.19;72.05
63088;BME280;49173;43.164;27.786;2023-09-12T02:57:58;100660.00;;;17.18;72.01
63088;BME280;49173;43.164;27.786;2023-09-12T03:00:23;100652.84;;;17.17;72.23
63088;BME280;49173;43.164;27.786;2023-09-12T03:02:49;100658.78;;;17.22;72.03
63088;BME280;49173;43.164;27.786;2023-09-12T03:05:15;100658.53;;;17.25;72.14
63088;BME280;49173;43.164;27.786;2023-09-12T03:07:41;100655.81;;;17.25;72.02
63088;BME280;49173;43.164;27.786;2023-09-12T03:10:07;100659.38;;;17.26;72.17
63088;BME280;49173;43.164;27.786;2023-09-12T03:12:33;100659.28;;;17.27;72.38
63088;BME280;49173;43.164;27.786;2023-09-12T03:15:00;100655.59;;;17.28;72.21
63088;BME280;49173;43.164;27.786;2023-09-12T03:17:28;100660.25;;;17.26;72.31
63088;BME280;49173;43.164;27.786;2023-09-12T03:19:53;100660.25;;;17.26;72.13
63088;BME280;49173;43.164;27.786;2023-09-12T03:22:19;100662.34;;;17.23;71.72
63088;BME280;49173;43.164;27.786;2023-09-12T03:24:45;100662.69;;;17.18;71.45
63088;BME280;49173;43.164;27.786;2023-09-12T03:27:11;100665.66;;;17.15;71.55
63088;BME280;49173;43.164;27.786;2023-09-12T03:29:36;100661.22;;;17.14;71.71
63088;BME280;49173;43.164;27.786;2023-09-12T03:32:02;100667.72;;;17.12;71.61
63088;BME280;49173;43.164;27.786;2023-09-12T03:34:29;100669.97;;;17.07;71.85
63088;BME280;49173;43.164;27.786;2023-09-12T03:36:55;100668.97;;;17.08;72.35
63088;BME280;49173;43.164;27.786;2023-09-12T03:39:21;100659.84;;;17.09;72.56
63088;BME280;49173;43.164;27.786;2023-09-12T03:41:46;100673.28;;;17.10;72.46
63088;BME280;49173;43.164;27.786;2023-09-12T03:44:12;100669.72;;;17.10;72.99
63088;BME280;49173;43.164;27.786;2023-09-12T03:46:38;100677.09;;;17.08;72.88
63088;BME280;49173;43.164;27.786;2023-09-12T03:49:03;100670.69;;;17.09;73.04
63088;BME280;49173;43.164;27.786;2023-09-12T03:51:29;100674.41;;;17.08;72.78
63088;BME280;49173;43.164;27.786;2023-09-12T03:53:55;100681.78;;;17.06;72.92
63088;BME280;49173;43.164;27.786;2023-09-12T03:56:21;100684.59;;;17.04;72.55
63088;BME280;49173;43.164;27.786;2023-09-12T03:58:46;100691.88;;;17.03;72.48
63088;BME280;49173;43.164;27.786;2023-09-12T04:01:12;100695.69;;;17.01;72.34
63088;BME280;49173;43.164;27.786;2023-09-12T04:03:38;100699.16;;;17.03;72.53
63088;BME280;49173;43.164;27.786;2023-09-12T04:06:04;100695.69;;;17.01;72.63
63088;BME280;49173;43.164;27.786;2023-09-12T04:08:30;100700.13;;;17.02;72.80
63088;BME280;49173;43.164;27.786;2023-09-12T04:10:55;100696.56;;;17.01;72.77
63088;BME280;49173;43.164;27.786;2023-09-12T04:13:21;100705.56;;;17.02;72.71
63088;BME280;49173;43.164;27.786;2023-09-12T04:15:47;100708.03;;;17.05;72.99
63088;BME280;49173;43.164;27.786;2023-09-12T04:18:13;100705.81;;;17.10;73.24
63088;BME280;49173;43.164;27.786;2023-09-12T04:20:39;100706.47;;;17.14;73.48
63088;BME280;49173;43.164;27.786;2023-09-12T04:23:04;100712.28;;;17.20;73.65
63088;BME280;49173;43.164;27.786;2023-09-12T04:25:30;100710.84;;;17.39;73.67
63088;BME280;49173;43.164;27.786;2023-09-12T04:27:57;100705.28;;;17.87;72.81
63088;BME280;49173;43.164;27.786;2023-09-12T04:30:23;100701.63;;;18.76;69.90
63088;BME280;49173;43.164;27.786;2023-09-12T04:32:49;100695.06;;;19.73;66.51
63088;BME280;49173;43.164;27.786;2023-09-12T04:35:15;100700.16;;;20.58;62.84
63088;BME280;49173;43.164;27.786;2023-09-12T04:37:41;100699.34;;;21.16;60.54
63088;BME280;49173;43.164;27.786;2023-09-12T04:40:07;100702.81;;;21.37;59.75
63088;BME280;49173;43.164;27.786;2023-09-12T04:42:34;100703.38;;;21.31;59.87
63088;BME280;49173;43.164;27.786;2023-09-12T04:44:59;100694.16;;;21.12;60.64
63088;BME280;49173;43.164;27.786;2023-09-12T04:47:25;100692.31;;;21.03;61.08
63088;BME280;49173;43.164;27.786;2023-09-12T04:49:53;100690.28;;;20.96;61.69
63088;BME280;49173;43.164;27.786;2023-09-12T04:52:18;100695.47;;;20.89;61.95
63088;BME280;49173;43.164;27.786;2023-09-12T04:54:44;100697.47;;;20.87;61.81
63088;BME280;49173;43.164;27.786;2023-09-12T04:57:10;100693.44;;;20.91;61.80
63088;BME280;49173;43.164;27.786;2023-09-12T04:59:35;100693.44;;;20.91;62.24
63088;BME280;49173;43.164;27.786;2023-09-12T05:02:20;100698.75;;;20.83;62.44
63088;BME280;49173;43.164;27.786;2023-09-12T05:04:46;100699.03;;;20.80;62.74
63088;BME280;49173;43.164;27.786;2023-09-12T05:07:12;100696.31;;;20.80;63.47
63088;BME280;49173;43.164;27.786;2023-09-12T05:09:38;100700.47;;;20.84;63.62
63088;BME280;49173;43.164;27.786;2023-09-12T05:12:04;100705.22;;;20.92;63.79
63088;BME280;49173;43.164;27.786;2023-09-12T05:14:29;100703.38;;;21.02;63.55
63088;BME280;49173;43.164;27.786;2023-09-12T05:16:55;100708.25;;;21.08;63.08
63088;BME280;49173;43.164;27.786;2023-09-12T05:19:21;100705.06;;;21.12;63.03
63088;BME280;49173;43.164;27.786;2023-09-12T05:21:48;100715.31;;;21.30;62.40
63088;BME280;49173;43.164;27.786;2023-09-12T05:24:14;100702.91;;;21.64;61.50
63088;BME280;49173;43.164;27.786;2023-09-12T05:26:40;100702.19;;;22.09;58.88
63088;BME280;49173;43.164;27.786;2023-09-12T05:29:05;100711.78;;;22.51;57.97
63088;BME280;49173;43.164;27.786;2023-09-12T05:31:31;100708.44;;;22.74;56.48
63088;BME280;49173;43.164;27.786;2023-09-12T05:33:57;100705.34;;;22.69;56.36
63088;BME280;49173;43.164;27.786;2023-09-12T05:36:23;100701.28;;;22.46;57.24
63088;BME280;49173;43.164;27.786;2023-09-12T05:38:48;100703.91;;;22.20;58.12
63088;BME280;49173;43.164;27.786;2023-09-12T05:41:14;100709.72;;;21.88;58.63
63088;BME280;49173;43.164;27.786;2023-09-12T05:43:40;100708.38;;;21.64;59.44
63088;BME280;49173;43.164;27.786;2023-09-12T05:46:05;100710.41;;;21.53;60.07
63088;BME280;49173;43.164;27.786;2023-09-12T05:48:31;100710.41;;;21.43;60.42
63088;BME280;49173;43.164;27.786;2023-09-12T05:50:57;100712.72;;;21.38;60.54
63088;BME280;49173;43.164;27.786;2023-09-12T05:53:22;100709.56;;;21.33;60.71
63088;BME280;49173;43.164;27.786;2023-09-12T05:55:48;100711.09;;;21.26;61.22
63088;BME280;49173;43.164;27.786;2023-09-12T05:58:14;100710.94;;;21.27;60.58
63088;BME280;49173;43.164;27.786;2023-09-12T06:00:40;100708.22;;;21.27;60.66
63088;BME280;49173;43.164;27.786;2023-09-12T06:03:06;100715.31;;;21.30;60.01
63088;BME280;49173;43.164;27.786;2023-09-12T06:05:32;100716.03;;;21.32;60.90
63088;BME280;49173;43.164;27.786;2023-09-12T06:07:58;100716.47;;;21.37;60.79
63088;BME280;49173;43.164;27.786;2023-09-12T06:10:24;100719.59;;;21.42;60.78
63088;BME280;49173;43.164;27.786;2023-09-12T06:12:50;100719.59;;;21.42;60.49
63088;BME280;49173;43.164;27.786;2023-09-12T06:15:16;100717.59;;;21.44;60.12
63088;BME280;49173;43.164;27.786;2023-09-12T06:17:42;100713.44;;;21.50;59.88
63088;BME280;49173;43.164;27.786;2023-09-12T06:20:08;100731.94;;;21.56;60.12
63088;BME280;49173;43.164;27.786;2023-09-12T06:22:34;100728.47;;;21.63;59.96
63088;BME280;49173;43.164;27.786;2023-09-12T06:25:01;100728.75;;;21.70;59.39
63088;BME280;49173;43.164;27.786;2023-09-12T06:27:30;100729.75;;;21.79;59.71
63088;BME280;49173;43.164;27.786;2023-09-12T06:29:56;100724.25;;;21.88;60.00
63088;BME280;49173;43.164;27.786;2023-09-12T06:32:22;100727.81;;;21.99;59.75
63088;BME280;49173;43.164;27.786;2023-09-12T06:34:48;100731.41;;;22.09;58.77
63088;BME280;49173;43.164;27.786;2023-09-12T06:37:14;100725.91;;;22.18;58.79
63088;BME280;49173;43.164;27.786;2023-09-12T06:39:39;100729.75;;;22.26;57.59
63088;BME280;49173;43.164;27.786;2023-09-12T06:42:06;100730.75;;;22.34;57.90
63088;BME280;49173;43.164;27.786;2023-09-12T06:44:32;100728.66;;;22.46;57.00
63088;BME280;49173;43.164;27.786;2023-09-12T06:46:59;100737.19;;;22.61;56.84
63088;BME280;49173;43.164;27.786;2023-09-12T06:49:24;100743.66;;;22.69;56.62
63088;BME280;49173;43.164;27.786;2023-09-12T06:51:50;100736.44;;;22.68;56.30
63088;BME280;49173;43.164;27.786;2023-09-12T06:54:16;100737.06;;;22.62;56.42
63088;BME280;49173;43.164;27.786;2023-09-12T06:56:41;100731.78;;;22.51;56.54
63088;BME280;49173;43.164;27.786;2023-09-12T06:59:08;100733.09;;;22.47;56.40
63088;BME280;49173;43.164;27.786;2023-09-12T07:01:34;100729.34;;;22.48;57.07
63088;BME280;49173;43.164;27.786;2023-09-12T07:04:01;100737.09;;;22.53;56.79
63088;BME280;49173;43.164;27.786;2023-09-12T07:06:27;100741.19;;;22.48;56.84
63088;BME280;49173;43.164;27.786;2023-09-12T07:08:53;100736.56;;;22.49;56.97
63088;BME280;49173;43.164;27.786;2023-09-12T07:11:18;100748.03;;;22.53;57.09
63088;BME280;49173;43.164;27.786;2023-09-12T07:13:45;100751.75;;;22.61;56.90
63088;BME280;49173;43.164;27.786;2023-09-12T07:16:11;100753.16;;;22.65;56.07
63088;BME280;49173;43.164;27.786;2023-09-12T07:18:37;100753.88;;;22.67;56.47
63088;BME280;49173;43.164;27.786;2023-09-12T07:21:05;100748.81;;;22.72;56.66
63088;BME280;49173;43.164;27.786;2023-09-12T07:23:31;100748.47;;;22.75;56.74
63088;BME280;49173;43.164;27.786;2023-09-12T07:25:58;100751.34;;;22.84;56.23
63088;BME280;49173;43.164;27.786;2023-09-12T07:28:25;100755.50;;;22.88;56.28
63088;BME280;49173;43.164;27.786;2023-09-12T07:30:51;100748.41;;;22.95;56.69
63088;BME280;49173;43.164;27.786;2023-09-12T07:33:18;100748.34;;;23.05;55.34
63088;BME280;49173;43.164;27.786;2023-09-12T07:35:44;100742.72;;;23.06;54.74
63088;BME280;49173;43.164;27.786;2023-09-12T07:38:10;100737.06;;;23.08;54.82
63088;BME280;49173;43.164;27.786;2023-09-12T07:40:36;100746.06;;;23.18;55.56
63088;BME280;49173;43.164;27.786;2023-09-12T07:43:02;100747.63;;;23.20;54.83
63088;BME280;49173;43.164;27.786;2023-09-12T07:45:28;100744.16;;;23.18;55.12
63088;BME280;49173;43.164;27.786;2023-09-12T07:47:56;100750.38;;;23.20;54.79
63088;BME280;49173;43.164;27.786;2023-09-12T07:50:23;100751.00;;;23.14;54.57
63088;BME280;49173;43.164;27.786;2023-09-12T07:53:07;100741.97;;;23.04;54.30
63088;BME280;49173;43.164;27.786;2023-09-12T07:55:37;100742.91;;;22.95;54.46
63088;BME280;49173;43.164;27.786;2023-09-12T07:58:15;100742.84;;;22.87;54.62
63088;BME280;49173;43.164;27.786;2023-09-12T08:00:42;100739.66;;;22.82;54.86
63088;BME280;49173;43.164;27.786;2023-09-12T08:03:08;100753.88;;;22.67;55.09
63088;BME280;49173;43.164;27.786;2023-09-12T08:05:34;100751.91;;;22.60;55.51
63088;BME280;49173;43.164;27.786;2023-09-12T08:08:00;100752.06;;;22.58;55.89
63088;BME280;49173;43.164;27.786;2023-09-12T08:10:26;100753.53;;;22.53;56.03
63088;BME280;49173;43.164;27.786;2023-09-12T08:12:52;100747.50;;;22.49;56.00
63088;BME280;49173;43.164;27.786;2023-09-12T08:15:19;100750.09;;;22.51;55.96
63088;BME280;49173;43.164;27.786;2023-09-12T08:17:46;100745.06;;;22.46;56.15
63088;BME280;49173;43.164;27.786;2023-09-12T08:20:18;100750.53;;;22.46;56.38
63088;BME280;49173;43.164;27.786;2023-09-12T08:22:44;100746.84;;;22.37;57.00
63088;BME280;49173;43.164;27.786;2023-09-12T08:25:10;100749.56;;;22.37;57.13
63088;BME280;49173;43.164;27.786;2023-09-12T08:27:37;100748.56;;;22.38;57.40
63088;BME280;49173;43.164;27.786;2023-09-12T08:30:03;100751.28;;;22.38;57.56
63088;BME280;49173;43.164;27.786;2023-09-12T08:32:30;100751.44;;;22.37;57.64
63088;BME280;49173;43.164;27.786;2023-09-12T08:34:55;100740.34;;;22.38;57.94
63088;BME280;49173;43.164;27.786;2023-09-12T08:37:21;100742.78;;;22.41;58.00
63088;BME280;49173;43.164;27.786;2023-09-12T08:39:47;100743.34;;;22.45;57.41
63088;BME280;49173;43.164;27.786;2023-09-12T08:42:15;100740.00;;;22.51;57.12
63088;BME280;49173;43.164;27.786;2023-09-12T08:44:42;100747.44;;;22.59;58.14
63088;BME280;49173;43.164;27.786;2023-09-12T08:47:11;100738.63;;;22.65;57.09
63088;BME280;49173;43.164;27.786;2023-09-12T08:49:38;100752.00;;;22.68;57.43
63088;BME280;49173;43.164;27.786;2023-09-12T08:52:05;100744.97;;;22.83;58.06
63088;BME280;49173;43.164;27.786;2023-09-12T08:54:32;100744.19;;;23.00;56.83
63088;BME280;49173;43.164;27.786;2023-09-12T08:57:01;100743.47;;;23.16;56.85
63088;BME280;49173;43.164;27.786;2023-09-12T08:59:31;100746.06;;;23.36;56.30
63088;BME280;49173;43.164;27.786;2023-09-12T09:01:58;100744.94;;;23.46;55.56
63088;BME280;49173;43.164;27.786;2023-09-12T09:04:25;100747.00;;;23.62;54.97
63088;BME280;49173;43.164;27.786;2023-09-12T09:06:54;100739.69;;;23.71;54.67
63088;BME280;49173;43.164;27.786;2023-09-12T09:09:23;100737.88;;;23.79;53.89
63088;BME280;49173;43.164;27.786;2023-09-12T09:11:50;100745.63;;;23.84;54.40
63088;BME280;49173;43.164;27.786;2023-09-12T09:14:16;100741.09;;;24.01;55.66
63088;BME280;49173;43.164;27.786;2023-09-12T09:16:41;100735.81;;;24.07;54.22
63088;BME280;49173;43.164;27.786;2023-09-12T09:19:07;100741.72;;;24.21;54.81
63088;BME280;49173;43.164;27.786;2023-09-12T09:21:37;100742.97;;;24.26;53.43
63088;BME280;49173;43.164;27.786;2023-09-12T09:24:07;100738.41;;;24.35;52.87
63088;BME280;49173;43.164;27.786;2023-09-12T09:26:52;100737.41;;;24.44;53.60
63088;BME280;49173;43.164;27.786;2023-09-12T09:29:26;100742.41;;;24.49;53.87
63088;BME280;49173;43.164;27.786;2023-09-12T09:31:59;100734.38;;;24.55;54.03
63088;BME280;49173;43.164;27.786;2023-09-12T09:34:25;100732.81;;;24.53;53.34
63088;BME280;49173;43.164;27.786;2023-09-12T09:36:55;100741.41;;;24.58;53.78
63088;BME280;49173;43.164;27.786;2023-09-12T09:39:27;100744.16;;;24.58;53.75
63088;BME280;49173;43.164;27.786;2023-09-12T09:41:55;100744.88;;;24.60;53.28
63088;BME280;49173;43.164;27.786;2023-09-12T09:44:40;100743.84;;;24.61;53.16
63088;BME280;49173;43.164;27.786;2023-09-12T09:47:05;100737.69;;;24.67;53.63
63088;BME280;49173;43.164;27.786;2023-09-12T09:49:33;100739.91;;;24.72;52.81
63088;BME280;49173;43.164;27.786;2023-09-12T09:52:03;100738.00;;;24.72;53.15
63088;BME280;49173;43.164;27.786;2023-09-12T09:54:29;100742.16;;;24.76;53.70
63088;BME280;49173;43.164;27.786;2023-09-12T09:56:56;100745.59;;;24.78;53.17
63088;BME280;49173;43.164;27.786;2023-09-12T09:59:26;100732.91;;;24.77;52.58
63088;BME280;49173;43.164;27.786;2023-09-12T10:01:59;100739.41;;;24.76;51.95
63088;BME280;49173;43.164;27.786;2023-09-12T10:04:27;100743.50;;;24.72;52.82
63088;BME280;49173;43.164;27.786;2023-09-12T10:06:55;100743.69;;;24.71;52.64
63088;BME280;49173;43.164;27.786;2023-09-12T10:09:23;100740.75;;;24.72;52.57
63088;BME280;49173;43.164;27.786;2023-09-12T10:11:52;100728.03;;;24.63;52.20
63088;BME280;49173;43.164;27.786;2023-09-12T10:14:20;100740.75;;;24.64;52.60
63088;BME280;49173;43.164;27.786;2023-09-12T10:16:48;100740.44;;;24.67;51.55
63088;BME280;49173;43.164;27.786;2023-09-12T10:19:23;100729.25;;;24.60;52.40
63088;BME280;49173;43.164;27.786;2023-09-12T10:22:09;100738.47;;;24.59;52.48
63088;BME280;49173;43.164;27.786;2023-09-12T10:24:39;100737.69;;;24.67;52.71
63088;BME280;49173;43.164;27.786;2023-09-12T10:27:06;100734.41;;;24.72;52.02
63088;BME280;49173;43.164;27.786;2023-09-12T10:29:33;100730.16;;;24.77;52.12
63088;BME280;49173;43.164;27.786;2023-09-12T10:31:59;100730.50;;;24.82;51.76
63088;BME280;49173;43.164;27.786;2023-09-12T10:34:25;100735.34;;;24.88;51.56
63088;BME280;49173;43.164;27.786;2023-09-12T10:36:55;100728.81;;;24.89;51.24
63088;BME280;49173;43.164;27.786;2023-09-12T10:39:23;100727.44;;;24.93;52.12
63088;BME280;49173;43.164;27.786;2023-09-12T10:41:52;100731.22;;;25.01;52.29
63088;BME280;49173;43.164;27.786;2023-09-12T10:44:18;100726.66;;;25.09;52.13
63088;BME280;49173;43.164;27.786;2023-09-12T10:46:47;100732.66;;;25.13;51.17
63088;BME280;49173;43.164;27.786;2023-09-12T10:49:15;100722.88;;;25.10;51.57
63088;BME280;49173;43.164;27.786;2023-09-12T10:51:43;100719.59;;;25.15;50.86
63088;BME280;49173;43.164;27.786;2023-09-12T10:54:13;100725.94;;;25.15;51.14
63088;BME280;49173;43.164;27.786;2023-09-12T10:56:39;100722.53;;;25.13;50.98
63088;BME280;49173;43.164;27.786;2023-09-12T11:01:40;100715.13;;;25.22;49.90
63088;BME280;49173;43.164;27.786;2023-09-12T11:06:47;100717.91;;;25.30;49.62
63088;BME280;49173;43.164;27.786;2023-09-12T11:09:25;100715.16;;;25.38;51.25
63088;BME280;49173;43.164;27.786;2023-09-12T11:12:04;100716.38;;;25.52;50.18
63088;BME280;49173;43.164;27.786;2023-09-12T11:14:31;100719.97;;;25.61;50.07
63088;BME280;49173;43.164;27.786;2023-09-12T11:19:52;100711.91;;;25.76;49.96
63088;BME280;49173;43.164;27.786;2023-09-12T11:22:25;100705.88;;;25.80;48.90
63088;BME280;49173;43.164;27.786;2023-09-12T11:24:52;100701.06;;;25.82;48.72
63088;BME280;49173;43.164;27.786;2023-09-12T11:27:18;100703.81;;;25.82;48.59
63088;BME280;49173;43.164;27.786;2023-09-12T11:29:45;100693.31;;;25.86;48.21
63088;BME280;49173;43.164;27.786;2023-09-12T11:32:28;100688.16;;;25.91;47.59
63088;BME280;49173;43.164;27.786;2023-09-12T11:34:55;100694.16;;;25.94;47.69
63088;BME280;49173;43.164;27.786;2023-09-12T11:37:27;100694.66;;;25.98;47.96
63088;BME280;49173;43.164;27.786;2023-09-12T11:39:55;100696.19;;;26.09;47.18
63088;BME280;49173;43.164;27.786;2023-09-12T11:42:23;100694.97;;;26.11;46.61
63088;BME280;49173;43.164;27.786;2023-09-12T11:44:51;100687.38;;;26.13;46.05
63088;BME280;49173;43.164;27.786;2023-09-12T11:47:17;100690.50;;;26.10;45.63
63088;BME280;49173;43.164;27.786;2023-09-12T11:49:44;100687.25;;;25.98;46.68
63088;BME280;49173;43.164;27.786;2023-09-12T11:52:12;100685.50;;;26.06;47.12
63088;BME280;49173;43.164;27.786;2023-09-12T11:54:39;100691.69;;;26.16;45.90
63088;BME280;49173;43.164;27.786;2023-09-12T11:57:08;100690.63;;;26.25;48.16
63088;BME280;49173;43.164;27.786;2023-09-12T11:59:42;100674.44;;;26.30;46.72
63088;BME280;49173;43.164;27.786;2023-09-12T12:02:11;100676.16;;;26.31;45.48
63088;BME280;49173;43.164;27.786;2023-09-12T12:04:37;100679.22;;;26.28;45.51
63088;BME280;49173;43.164;27.786;2023-09-12T12:07:04;100677.34;;;26.28;45.34
63088;BME280;49173;43.164;27.786;2023-09-12T12:09:31;100672.03;;;26.27;45.22
63088;BME280;49173;43.164;27.786;2023-09-12T12:12:03;100671.19;;;26.18;44.98
63088;BME280;49173;43.164;27.786;2023-09-12T12:14:33;100670.97;;;26.28;45.21
63088;BME280;49173;43.164;27.786;2023-09-12T12:17:06;100671.63;;;26.38;45.93
63088;BME280;49173;43.164;27.786;2023-09-12T12:19:33;100673.00;;;26.50;45.77
63088;BME280;49173;43.164;27.786;2023-09-12T12:21:59;100669.47;;;26.65;45.77
63088;BME280;49173;43.164;27.786;2023-09-12T12:24:25;100664.09;;;26.71;44.05
63088;BME280;49173;43.164;27.786;2023-09-12T12:26:51;100669.47;;;26.65;43.38
63088;BME280;49173;43.164;27.786;2023-09-12T12:29:18;100672.25;;;26.56;43.48
63088;BME280;49173;43.164;27.786;2023-09-12T12:31:44;100666.13;;;26.46;43.54
63088;BME280;49173;43.164;27.786;2023-09-12T12:34:10;100664.75;;;26.42;43.66
63088;BME280;49173;43.164;27.786;2023-09-12T12:36:41;100664.28;;;26.31;44.11
63088;BME280;49173;43.164;27.786;2023-09-12T12:39:10;100666.31;;;26.37;44.96
63088;BME280;49173;43.164;27.786;2023-09-12T12:41:36;100657.03;;;26.38;43.70
63088;BME280;49173;43.164;27.786;2023-09-12T12:44:02;100659.75;;;26.46;43.34
63088;BME280;49173;43.164;27.786;2023-09-12T12:46:29;100667.66;;;26.49;43.27
63088;BME280;49173;43.164;27.786;2023-09-12T12:48:55;100666.13;;;26.46;43.10
63088;BME280;49173;43.164;27.786;2023-09-12T12:51:25;100663.91;;;26.42;43.58
63088;BME280;49173;43.164;27.786;2023-09-12T12:54:02;100665.59;;;26.51;43.63
63088;BME280;49173;43.164;27.786;2023-09-12T12:56:29;100666.84;;;26.40;43.84